Time;durP1;ratioP1;P1;durP2;ratioP2;P2;SDS_P1;SDS_P2;PMS_P1;PMS_P2;Temp;Humidity;BMP_temperature;BMP_pressure;BME280_temperature;BME280_humidity;BME280_pressure;Samples;Min_cycle;Max_cycle;Signal;HPM_P1;HPM_P2
2022/05/20 00:02:13;;;;;;;5.13;1.65;;;;;;;16.57;59.95;100952.28;5034135;28;20550;-83
2022/05/20 00:04:38;;;;;;;9.60;1.73;;;;;;;16.64;59.97;100948.97;5034608;28;20383;-83
2022/05/20 00:07:04;;;;;;;11.07;1.35;;;;;;;16.65;60.07;100941.88;5034632;28;20052;-83
2022/05/20 00:09:29;;;;;;;6.90;1.52;;;;;;;16.57;60.53;100947.00;5034731;28;20025;-83
2022/05/20 00:11:54;;;;;;;6.68;1.48;;;;;;;15.96;61.95;100942.34;5034124;28;20468;-83
2022/05/20 00:14:20;;;;;;;7.82;1.60;;;;;;;16.02;61.55;100925.94;5034421;28;20074;-83
2022/05/20 00:16:46;;;;;;;8.43;1.80;;;;;;;16.11;61.74;100927.81;5032865;28;20048;-83
2022/05/20 00:19:11;;;;;;;5.07;1.05;;;;;;;16.15;61.82;100937.22;5034429;28;20033;-83
2022/05/20 00:21:36;;;;;;;2.50;0.90;;;;;;;16.20;62.56;100948.25;5034320;28;20037;-83
2022/05/20 00:24:03;;;;;;;6.50;1.33;;;;;;;16.17;61.81;100951.16;5034189;28;20482;-83
2022/05/20 00:26:28;;;;;;;10.68;1.50;;;;;;;15.64;62.50;100951.91;5034247;28;20112;-83
2022/05/20 00:28:55;;;;;;;10.40;1.45;;;;;;;15.96;61.55;100948.47;5034265;28;20108;-83
2022/05/20 00:31:23;;;;;;;6.95;1.00;;;;;;;16.13;60.95;100949.72;5029075;28;20032;-83
2022/05/20 00:33:49;;;;;;;3.75;1.02;;;;;;;16.12;61.01;100931.31;5033980;28;20030;-83
2022/05/20 00:36:15;;;;;;;3.20;0.80;;;;;;;16.21;60.86;100931.41;5033735;28;20044;-83
2022/05/20 00:38:40;;;;;;;5.68;1.10;;;;;;;16.22;60.03;100937.53;5033846;28;20487;-83
2022/05/20 00:41:07;;;;;;;5.88;1.33;;;;;;;16.38;60.01;100934.44;5033875;28;20057;-83
2022/05/20 00:43:33;;;;;;;11.32;1.20;;;;;;;16.39;60.46;100934.31;5033979;28;20100;-83
2022/05/20 00:46:01;;;;;;;5.07;1.05;;;;;;;16.12;61.64;100953.34;5033319;28;20116;-83
2022/05/20 00:48:28;;;;;;;5.57;1.20;;;;;;;16.27;60.87;100945.91;5033619;28;20447;-83
2022/05/20 00:51:01;;;;;;;8.98;1.17;;;;;;;16.41;60.29;100952.72;5033952;28;20029;-83
2022/05/20 00:53:33;;;;;;;10.43;1.15;;;;;;;16.23;60.94;100937.41;5032066;28;20033;-83
2022/05/20 00:56:00;;;;;;;7.32;1.20;;;;;;;16.25;59.94;100922.22;5033761;28;20033;-83
2022/05/20 00:58:27;;;;;;;4.05;1.40;;;;;;;16.39;60.66;100917.53;5033660;28;20044;-83
2022/05/20 01:00:55;;;;;;;8.80;1.38;;;;;;;16.40;61.01;100913.94;5033437;28;20053;-83
2022/05/20 01:03:25;;;;;;;4.50;1.10;;;;;;;16.44;61.15;100915.34;5033542;28;20026;-83
2022/05/20 01:05:52;;;;;;;3.88;1.00;;;;;;;16.11;62.17;100922.50;5033546;28;20391;-83
2022/05/20 01:08:21;;;;;;;6.53;1.30;;;;;;;16.17;62.01;100924.66;5031688;28;20029;-83
2022/05/20 01:10:47;;;;;;;4.88;0.98;;;;;;;15.92;62.91;100936.44;5033459;28;20021;-83
2022/05/20 01:13:15;;;;;;;6.57;1.20;;;;;;;15.71;62.97;100923.13;5033339;28;20434;-83
2022/05/20 01:15:40;;;;;;;8.32;1.60;;;;;;;15.93;61.46;100905.50;5033276;28;20029;-83
2022/05/20 01:18:07;;;;;;;4.53;1.02;;;;;;;16.05;61.89;100905.34;5033204;28;20060;-83
2022/05/20 01:20:37;;;;;;;6.25;1.30;;;;;;;16.02;61.48;100904.75;5033125;28;20021;-83
2022/05/20 01:23:15;;;;;;;5.40;1.10;;;;;;;16.16;60.61;100909.72;5029668;28;20510;-83
2022/05/20 01:25:45;;;;;;;5.47;1.35;;;;;;;15.97;61.99;100918.34;5029773;28;20049;-83
2022/05/20 01:28:11;;;;;;;6.45;1.35;;;;;;;15.97;62.11;100917.53;5031020;28;20029;-83
2022/05/20 01:30:41;;;;;;;8.20;1.83;;;;;;;16.03;62.41;100932.91;5032509;28;20034;-83
2022/05/20 01:33:07;;;;;;;10.07;1.77;;;;;;;15.92;62.00;100925.84;5032997;28;20287;-83
2022/05/20 01:35:40;;;;;;;10.70;1.58;;;;;;;16.08;61.88;100924.59;5031657;28;20022;-83
2022/05/20 01:38:07;;;;;;;5.28;1.50;;;;;;;16.03;62.69;100930.25;5029383;28;20030;-83
2022/05/20 01:41:03;;;;;;;5.63;1.40;;;;;;;15.91;62.19;100925.97;5032602;28;20427;-83
2022/05/20 01:43:53;;;;;;;6.07;1.30;;;;;;;15.65;63.82;100911.22;5031097;28;20021;-83
2022/05/20 01:46:28;;;;;;;2.80;0.85;;;;;;;15.65;64.10;100913.03;5032569;28;20226;-83
2022/05/20 01:49:17;;;;;;;8.15;1.38;;;;;;;15.71;63.60;100924.94;5032879;28;20021;-83
2022/05/20 01:52:24;;;;;;;2.83;0.82;;;;;;;15.69;62.99;100921.56;5032627;28;20021;-83
2022/05/20 01:55:03;;;;;;;3.70;1.10;;;;;;;15.59;62.74;100921.47;4990614;28;20023;-83
2022/05/20 01:57:34;;;;;;;5.10;0.98;;;;;;;15.65;63.00;100918.31;4990801;28;20038;-83
2022/05/20 02:00:25;;;;;;;3.40;0.80;;;;;;;15.63;63.56;100907.84;5003693;28;20492;-83
2022/05/20 02:03:22;;;;;;;5.73;1.07;;;;;;;15.68;63.66;100912.78;5010383;28;20034;-83
2022/05/20 02:06:00;;;;;;;4.72;0.95;;;;;;;15.56;63.89;100909.34;5012797;28;20076;-83
2022/05/20 02:08:51;;;;;;;4.65;0.70;;;;;;;15.64;63.39;100906.06;5012715;28;20026;-83
2022/05/20 02:11:31;;;;;;;4.67;0.80;;;;;;;15.64;63.03;100900.78;5013008;28;20109;-83
2022/05/20 02:14:06;;;;;;;5.10;1.17;;;;;;;15.50;63.78;100901.03;5020695;28;20083;-83
2022/05/20 02:16:36;;;;;;;8.60;1.50;;;;;;;15.21;65.10;100891.84;5032180;28;20028;-83
2022/05/20 02:19:35;;;;;;;6.70;0.85;;;;;;;15.46;65.14;100898.66;5032176;28;20025;-83
2022/05/20 02:22:05;;;;;;;7.05;2.03;;;;;;;15.39;65.46;100873.63;4996726;28;20037;-83
2022/05/20 02:24:33;;;;;;;10.20;1.58;;;;;;;15.58;64.19;100864.19;5032141;28;20032;-83
2022/05/20 02:27:06;;;;;;;5.47;1.42;;;;;;;15.53;64.00;100861.09;5031925;28;20029;-83
2022/05/20 02:30:02;;;;;;;4.57;1.25;;;;;;;15.84;63.25;100857.63;5015602;28;20033;-83
2022/05/20 02:32:41;;;;;;;6.07;1.20;;;;;;;15.71;63.75;100858.75;5012234;28;20097;-83
2022/05/20 02:35:07;;;;;;;5.40;1.05;;;;;;;15.54;64.42;100873.34;5012191;28;20017;-83
2022/05/20 02:37:36;;;;;;;7.60;1.30;;;;;;;15.47;64.61;100870.38;5012311;28;20427;-83
2022/05/20 02:40:04;;;;;;;6.03;1.25;;;;;;;15.34;65.17;100873.16;5012189;28;20076;-83
2022/05/20 02:42:30;;;;;;;10.93;2.50;;;;;;;15.31;65.00;100883.16;5012749;28;20026;-83
2022/05/20 02:44:59;;;;;;;17.42;4.22;;;;;;;15.38;64.77;100893.13;5012087;28;20045;-83
2022/05/20 02:47:26;;;;;;;13.20;3.92;;;;;;;15.50;64.09;100882.50;5012031;28;20060;-83
2022/05/20 02:49:52;;;;;;;10.10;2.20;;;;;;;15.57;63.79;100873.94;5012054;28;20026;-83
2022/05/20 02:52:17;;;;;;;9.27;1.92;;;;;;;15.62;63.69;100862.97;5012129;28;20537;-83
2022/05/20 02:54:42;;;;;;;9.93;2.03;;;;;;;15.54;64.29;100873.34;5013002;28;20041;-83
2022/05/20 02:57:08;;;;;;;6.22;1.33;;;;;;;15.67;64.37;100863.44;5010703;28;20112;-83
2022/05/20 03:05:01;;;;;;;7.80;0.90;;;;;;;15.71;63.44;100846.34;5031875;28;20133;-83
2022/05/20 03:07:27;;;;;;;5.05;1.10;;;;;;;15.90;62.76;100837.75;5032132;28;20104;-83
2022/05/20 03:09:52;;;;;;;5.15;1.20;;;;;;;16.01;62.32;100834.19;5028100;28;20080;-83
2022/05/20 03:12:18;;;;;;;5.25;1.20;;;;;;;16.14;62.13;100818.94;5029541;28;20404;-83
2022/05/20 03:14:44;;;;;;;3.53;0.80;;;;;;;16.09;62.45;100809.72;5031566;28;20022;-83
2022/05/20 03:17:11;;;;;;;8.05;1.23;;;;;;;16.08;61.94;100829.25;5031581;28;20087;-83
2022/05/20 03:19:37;;;;;;;4.22;1.23;;;;;;;16.17;61.70;100821.34;5031608;28;20048;-83
2022/05/20 03:22:04;;;;;;;3.78;1.10;;;;;;;16.10;62.56;100817.53;5031257;28;20028;-83
2022/05/20 03:24:30;;;;;;;8.45;1.13;;;;;;;15.84;62.29;100820.56;5031445;28;20029;-83
2022/05/20 03:26:56;;;;;;;10.77;1.50;;;;;;;15.88;62.56;100820.28;5031130;28;20029;-83
2022/05/20 03:29:21;;;;;;;8.45;1.63;;;;;;;16.02;61.31;100804.94;5031594;28;20021;-83
2022/05/20 03:31:47;;;;;;;6.68;1.15;;;;;;;15.93;61.90;100813.66;5031432;28;20479;-83
2022/05/20 03:34:13;;;;;;;4.05;1.30;;;;;;;16.16;61.62;100806.41;5031407;28;20159;-83
2022/05/20 03:36:42;;;;;;;5.82;1.42;;;;;;;16.25;61.39;100810.06;5031190;28;20026;-83
2022/05/20 03:39:10;;;;;;;6.35;1.52;;;;;;;16.33;62.16;100806.78;5030007;28;20029;-83
2022/05/20 03:41:37;;;;;;;3.72;1.25;;;;;;;16.35;61.52;100805.69;5011377;28;20468;-83
2022/05/20 03:44:03;;;;;;;4.25;1.23;;;;;;;16.47;61.84;100803.78;5011575;28;20483;-83
2022/05/20 03:46:30;;;;;;;5.13;1.10;;;;;;;16.43;61.93;100811.16;5011615;28;20037;-83
2022/05/20 03:48:56;;;;;;;5.90;1.00;;;;;;;16.48;61.65;100815.22;5011418;28;20117;-83
2022/05/20 03:51:21;;;;;;;5.45;1.33;;;;;;;16.51;62.36;100818.47;5011549;28;20030;-83
2022/05/20 03:53:47;;;;;;;5.72;1.20;;;;;;;16.43;61.88;100812.97;5013729;28;20026;-83
2022/05/20 03:56:12;;;;;;;3.33;1.50;;;;;;;16.30;62.64;100820.31;5030083;28;20061;-83
2022/05/20 03:58:38;;;;;;;5.63;1.02;;;;;;;16.16;63.09;100826.78;5034685;28;20049;-83
2022/05/20 04:03:50;;;;;;;4.65;1.10;;;;;;;16.37;62.76;100821.44;5034849;28;20117;-83
2022/05/20 04:06:15;;;;;;;4.20;1.38;;;;;;;16.38;62.72;100817.81;5034564;28;20104;-83
2022/05/20 04:08:41;;;;;;;4.20;1.30;;;;;;;16.37;62.13;100814.34;5034575;28;20056;-83
2022/05/20 04:11:11;;;;;;;5.20;1.40;;;;;;;16.39;62.54;100816.84;5015894;28;20026;-83
2022/05/20 04:13:37;;;;;;;7.05;1.33;;;;;;;16.42;62.85;100824.53;5014787;28;20399;-83
2022/05/20 04:16:03;;;;;;;5.85;1.60;;;;;;;16.49;63.30;100820.41;5014760;28;20105;-83
2022/05/20 04:18:29;;;;;;;6.97;1.58;;;;;;;16.47;63.22;100825.00;5014561;28;20108;-83
2022/05/20 04:20:54;;;;;;;9.13;1.65;;;;;;;16.45;64.30;100819.00;5014581;28;20109;-83
2022/05/20 04:23:20;;;;;;;6.88;1.80;;;;;;;16.25;64.12;100825.97;5014704;28;20355;-83
2022/05/20 04:25:47;;;;;;;7.47;1.95;;;;;;;16.28;64.82;100819.59;5015717;28;20076;-83
2022/05/20 04:28:13;;;;;;;3.60;1.27;;;;;;;16.42;64.15;100820.06;5014422;28;20137;-83
2022/05/20 04:30:38;;;;;;;5.40;1.30;;;;;;;16.48;64.97;100826.66;5012958;28;20357;-83
2022/05/20 04:33:04;;;;;;;7.13;1.45;;;;;;;16.28;64.92;100815.13;5014163;28;20044;-83
2022/05/20 04:35:29;;;;;;;7.13;1.33;;;;;;;16.34;64.81;100816.41;5014440;28;20026;-83
2022/05/20 04:37:54;;;;;;;5.35;1.63;;;;;;;16.34;64.84;100827.84;5014415;28;20026;-83
2022/05/20 04:40:20;;;;;;;3.10;1.10;;;;;;;16.18;65.85;100838.91;5015174;28;20030;-83
2022/05/20 04:48:13;;;;;;;3.90;1.20;;;;;;;16.45;63.12;100826.94;5013861;28;20108;-83
2022/05/20 04:50:39;;;;;;;6.00;1.60;;;;;;;16.39;62.87;100827.44;5014226;28;20464;-83
2022/05/20 04:53:05;;;;;;;4.93;1.45;;;;;;;16.34;63.69;100835.78;5014015;28;20029;-83
2022/05/20 04:55:31;;;;;;;7.05;1.35;;;;;;;16.18;64.49;100840.72;5027742;28;20057;-83
2022/05/20 04:57:57;;;;;;;6.05;1.25;;;;;;;15.88;65.53;100846.78;5033842;28;20045;-83
2022/05/20 05:00:25;;;;;;;6.72;1.73;;;;;;;15.62;66.13;100852.38;5033643;28;20026;-83
2022/05/20 05:02:51;;;;;;;2.78;1.10;;;;;;;15.70;67.05;100849.09;5033567;28;20063;-83
2022/05/20 05:05:20;;;;;;;7.60;1.73;;;;;;;15.94;65.92;100847.13;5032848;28;20053;-83
2022/05/20 05:07:47;;;;;;;5.60;1.27;;;;;;;16.13;65.33;100854.34;5033384;28;20045;-83
2022/05/20 05:10:16;;;;;;;8.88;1.88;;;;;;;16.26;64.32;100848.88;5019236;28;20033;-83
2022/05/20 05:12:41;;;;;;;8.27;1.58;;;;;;;16.20;65.62;100847.56;5013402;28;20034;-83
2022/05/20 05:15:07;;;;;;;7.57;1.58;;;;;;;16.08;65.68;100861.03;5013607;28;20029;-83
2022/05/20 05:20:20;;;;;;;9.32;2.22;;;;;;;16.30;65.03;100828.25;5014806;28;20092;-82
2022/05/20 05:22:46;;;;;;;7.30;1.50;;;;;;;16.28;64.96;100835.50;5013236;28;20469;-83
2022/05/20 05:25:13;;;;;;;4.85;1.27;;;;;;;16.35;65.88;100840.13;5013270;28;20029;-83
2022/05/20 05:27:39;;;;;;;6.00;1.60;;;;;;;16.47;66.38;100838.25;5013405;28;20045;-83
2022/05/20 05:30:05;;;;;;;9.90;1.80;;;;;;;16.42;66.06;100830.66;5013240;28;20480;-83
2022/05/20 05:32:31;;;;;;;10.32;2.00;;;;;;;16.29;66.71;100837.16;5013037;28;20129;-83
2022/05/20 05:34:56;;;;;;;9.07;1.70;;;;;;;16.01;67.71;100839.50;5019271;28;20104;-85
2022/05/20 05:37:22;;;;;;;10.07;2.13;;;;;;;15.86;67.76;100841.63;5032948;28;20434;-83
2022/05/20 05:39:47;;;;;;;8.25;1.83;;;;;;;16.13;67.31;100842.91;5032817;28;20044;-83
2022/05/20 05:42:13;;;;;;;6.00;1.80;;;;;;;16.33;66.56;100851.81;5032519;28;20167;-83
2022/05/20 05:44:39;;;;;;;9.57;2.42;;;;;;;16.19;67.65;100863.59;5031689;28;20037;-83
2022/05/20 05:47:04;;;;;;;8.15;2.35;;;;;;;16.35;67.25;100852.53;5032748;28;20032;-83
2022/05/20 05:49:31;;;;;;;7.85;1.85;;;;;;;16.15;67.29;100857.72;5027868;28;20598;-83
2022/05/20 05:51:56;;;;;;;10.05;2.15;;;;;;;16.48;66.32;100853.16;5013334;28;20041;-83
2022/05/20 05:54:22;;;;;;;7.50;1.90;;;;;;;16.65;66.03;100863.16;5019897;28;20068;-84
2022/05/20 05:56:48;;;;;;;9.05;2.08;;;;;;;16.71;66.00;100872.41;5032396;28;20433;-84
2022/05/20 05:59:14;;;;;;;10.40;2.42;;;;;;;16.77;65.38;100857.78;5031995;28;20018;-83
2022/05/20 06:01:39;;;;;;;14.07;2.78;;;;;;;16.78;65.83;100872.69;5030081;28;20403;-83
2022/05/20 06:04:05;;;;;;;7.00;2.03;;;;;;;16.84;64.90;100870.41;5024403;28;20021;-83
2022/05/20 06:06:30;;;;;;;11.55;2.63;;;;;;;16.92;64.87;100877.66;5032189;28;20040;-83
2022/05/20 06:08:55;;;;;;;8.13;2.28;;;;;;;16.82;65.33;100876.78;5026731;28;20022;-82
2022/05/20 06:11:21;;;;;;;12.15;2.53;;;;;;;16.92;65.39;100872.34;5030091;28;20483;-84
2022/05/20 06:13:46;;;;;;;6.60;2.10;;;;;;;16.99;65.30;100884.13;5031268;28;20021;-82
2022/05/20 06:16:21;;;;;;;9.50;3.13;;;;;;;17.03;65.02;100872.25;5031600;28;20493;-83
2022/05/20 06:18:46;;;;;;;9.20;2.45;;;;;;;17.15;64.36;100877.47;5031752;28;20567;-83
2022/05/20 06:21:12;;;;;;;8.15;2.28;;;;;;;17.11;64.81;100876.06;5031621;28;20168;-83
2022/05/20 06:23:37;;;;;;;12.60;2.92;;;;;;;16.96;64.56;100883.53;5030962;28;20129;-83
2022/05/20 06:26:03;;;;;;;11.80;3.20;;;;;;;17.05;64.71;100888.88;5031189;28;20029;-82
2022/05/20 06:28:30;;;;;;;8.90;2.40;;;;;;;17.18;64.82;100895.75;5031786;28;20395;-82
2022/05/20 06:30:56;;;;;;;10.55;3.40;;;;;;;17.17;64.87;100907.38;5031625;28;20021;-82
2022/05/20 06:33:21;;;;;;;15.30;3.97;;;;;;;17.07;65.53;100906.50;5031594;28;20026;-83
2022/05/20 06:41:14;;;;;;;11.85;3.42;;;;;;;17.27;64.69;100889.66;5015223;28;20103;-83
2022/05/20 06:43:40;;;;;;;7.13;2.75;;;;;;;17.14;65.45;100892.56;5015572;28;20488;-84
2022/05/20 06:46:06;;;;;;;9.73;3.80;;;;;;;17.08;65.22;100892.25;5031814;28;20029;-83
2022/05/20 06:48:42;;;;;;;10.30;3.72;;;;;;;16.81;67.08;100883.91;5031951;28;20029;-83
2022/05/20 06:51:09;;;;;;;8.30;3.67;;;;;;;17.01;66.94;100882.19;5031815;28;20032;-84
2022/05/20 06:53:35;;;;;;;13.68;3.92;;;;;;;17.06;66.57;100884.41;5031061;28;20025;-83
2022/05/20 06:56:01;;;;;;;12.07;4.30;;;;;;;17.09;66.38;100883.31;5031053;28;20047;-84
2022/05/20 06:58:27;;;;;;;8.57;3.85;;;;;;;17.11;66.66;100884.03;5031353;28;20029;-84
2022/05/20 07:00:52;;;;;;;12.85;3.83;;;;;;;16.96;67.35;100884.41;5031635;28;20022;-84
2022/05/20 07:03:20;;;;;;;9.75;3.72;;;;;;;17.07;66.76;100882.63;5031635;28;20039;-83
2022/05/20 07:05:46;;;;;;;13.70;3.55;;;;;;;17.22;66.43;100878.63;5031791;28;20072;-84
2022/05/20 07:08:12;;;;;;;9.70;4.32;;;;;;;17.15;66.68;100885.44;5030981;28;20030;-84
2022/05/20 07:10:37;;;;;;;6.90;3.45;;;;;;;17.18;66.70;100878.06;5031632;28;20030;-84
2022/05/20 07:13:03;;;;;;;9.60;3.65;;;;;;;17.23;67.05;100873.16;5031507;28;20029;-84
2022/05/20 07:15:29;;;;;;;11.25;4.05;;;;;;;17.21;66.28;100871.63;5029770;28;20037;-85
2022/05/20 07:17:54;;;;;;;9.13;3.17;;;;;;;17.28;66.10;100861.28;5031551;28;20543;-86
2022/05/20 07:20:19;;;;;;;9.55;3.30;;;;;;;17.25;66.34;100863.25;5031754;28;20380;-85
2022/05/20 07:22:45;;;;;;;12.45;3.28;;;;;;;17.42;65.65;100842.34;5031463;28;20388;-88
2022/05/20 07:25:11;;;;;;;6.78;2.40;;;;;;;17.55;65.32;100837.56;5031725;28;20071;-88
2022/05/20 07:27:36;;;;;;;9.93;3.10;;;;;;;17.70;65.13;100838.00;5031989;28;20044;-88
2022/05/20 07:30:03;;;;;;;9.30;2.75;;;;;;;17.62;65.52;100832.56;5031938;28;20025;-85
2022/05/20 07:32:28;;;;;;;9.00;2.20;;;;;;;17.66;65.25;100828.66;5033776;28;20484;-84
2022/05/20 07:34:53;;;;;;;8.05;3.03;;;;;;;17.56;64.54;100830.47;5035513;28;20104;-84
2022/05/20 07:37:19;;;;;;;8.48;2.50;;;;;;;17.76;64.00;100823.34;5028152;28;20030;-85
2022/05/20 07:39:44;;;;;;;9.20;2.22;;;;;;;18.02;62.36;100829.75;5034998;28;20049;-83
2022/05/20 07:42:10;;;;;;;7.10;2.28;;;;;;;18.02;62.64;100829.75;5034297;28;20086;-83
2022/05/20 07:44:36;;;;;;;10.15;1.55;;;;;;;18.03;62.62;100826.13;5035143;28;20029;-83
2022/05/20 07:47:03;;;;;;;6.13;1.50;;;;;;;17.75;61.89;100827.81;5035266;28;20021;-83
2022/05/20 07:49:28;;;;;;;8.32;1.83;;;;;;;17.78;62.95;100827.53;5035126;28;20032;-84
2022/05/20 07:51:57;;;;;;;7.57;1.50;;;;;;;17.51;63.18;100824.72;5031384;28;20382;-84
2022/05/20 07:54:25;;;;;;;5.35;1.30;;;;;;;17.56;64.21;100827.81;5015275;28;20033;-84
2022/05/20 07:56:57;;;;;;;7.68;1.58;;;;;;;17.78;64.22;100830.19;5015191;28;20029;-84
2022/05/20 07:59:29;;;;;;;6.85;1.73;;;;;;;17.64;62.07;100827.94;5015157;28;20500;-84
2022/05/20 08:01:54;;;;;;;;;;;;;;;17.89;62.47;100833.69;5015455;28;20030;-84
2022/05/20 08:04:53;;;;;;;6.05;1.20;;;;;;;17.93;63.04;100841.25;5024602;28;19920;-84
2022/05/20 08:07:21;;;;;;;5.13;1.35;;;;;;;17.80;63.39;100838.84;5033511;28;20433;-84
2022/05/20 08:09:47;;;;;;;4.13;1.55;;;;;;;17.77;63.12;100831.16;5034645;28;20025;-84
2022/05/20 08:12:13;;;;;;;6.88;1.20;;;;;;;17.75;61.63;100822.50;5034552;28;20030;-84
2022/05/20 08:14:39;;;;;;;7.20;0.98;;;;;;;17.81;62.63;100821.94;5033220;28;20380;-84
2022/05/20 08:17:05;;;;;;;6.05;1.55;;;;;;;17.83;63.25;100824.44;5034906;28;20082;-84
2022/05/20 08:19:30;;;;;;;5.65;1.30;;;;;;;17.88;64.51;100832.03;5032352;28;20066;-85
2022/05/20 08:21:56;;;;;;;4.88;1.20;;;;;;;17.76;64.11;100824.16;5034174;28;20484;-84
2022/05/20 08:24:22;;;;;;;7.10;1.70;;;;;;;17.73;63.74;100828.91;5032974;28;20113;-85
2022/05/20 08:26:47;;;;;;;8.50;1.73;;;;;;;17.99;63.87;100827.41;5027362;28;20041;-84
2022/05/20 08:29:13;;;;;;;6.25;1.73;;;;;;;18.11;63.91;100827.22;5032600;28;20091;-84
2022/05/20 08:31:42;;;;;;;6.18;1.20;;;;;;;18.06;64.19;100825.00;5033821;28;20525;-85
2022/05/20 08:34:08;;;;;;;5.57;1.40;;;;;;;18.16;64.04;100830.31;5032583;28;20068;-84
2022/05/20 08:36:35;;;;;;;5.85;2.00;;;;;;;18.36;63.38;100821.28;5034123;28;20037;-84
2022/05/20 08:39:02;;;;;;;6.43;2.05;;;;;;;18.34;62.93;100819.75;5031471;28;20514;-85
2022/05/20 08:41:32;;;;;;;7.00;1.92;;;;;;;18.33;63.01;100799.50;5032150;28;20069;-84
2022/05/20 08:43:58;;;;;;;4.68;1.50;;;;;;;18.46;61.61;100810.63;5033820;28;20411;-84
2022/05/20 08:46:24;;;;;;;4.57;1.48;;;;;;;18.07;62.08;100821.38;5045229;28;20527;-84
2022/05/20 08:48:55;;;;;;;3.70;1.60;;;;;;;18.33;62.67;100810.13;5025579;28;20033;-84
2022/05/20 08:51:22;;;;;;;7.33;1.30;;;;;;;18.30;61.98;100826.34;5033612;28;20021;-84
2022/05/20 08:53:49;;;;;;;6.03;1.70;;;;;;;18.32;62.23;100816.41;5033905;28;20059;-84
2022/05/20 08:56:19;;;;;;;5.75;1.42;;;;;;;18.48;63.11;100806.00;5031876;28;20422;-84
2022/05/20 08:58:52;;;;;;;5.53;1.88;;;;;;;18.61;61.07;100803.84;5033474;28;20030;-84
2022/05/20 09:01:42;;;;;;;5.43;1.15;;;;;;;18.67;62.97;100806.91;5031658;28;20564;-84
2022/05/20 09:04:11;;;;;;;2.53;1.08;;;;;;;18.98;60.74;100810.97;5013912;28;20034;-84
2022/05/20 09:07:02;;;;;;;4.63;1.27;;;;;;;19.05;60.03;100805.06;5013484;28;20038;-84
2022/05/20 09:09:48;;;;;;;2.85;0.75;;;;;;;19.04;60.03;100801.56;5013653;28;20503;-85
2022/05/20 09:12:27;;;;;;;3.45;1.05;;;;;;;18.50;59.64;100800.53;5025914;28;20087;-83
2022/05/20 09:17:46;;;;;;;5.55;1.15;;;;;;;18.48;59.25;100803.31;5026106;28;20518;-84
2022/05/20 09:20:20;;;;;;;6.22;1.27;;;;;;;18.34;60.70;100807.28;5032558;28;20144;-84
2022/05/20 09:23:02;;;;;;;2.83;0.90;;;;;;;18.68;59.87;100798.78;5031676;28;20025;-84
2022/05/20 09:25:32;;;;;;;3.67;1.02;;;;;;;18.83;59.79;100791.16;5013402;28;20060;-85
2022/05/20 09:28:29;;;;;;;3.22;0.70;;;;;;;18.93;59.76;100791.94;5021342;28;20021;-84
2022/05/20 09:31:07;;;;;;;3.72;0.70;;;;;;;18.82;59.73;100790.34;5043422;28;20507;-84
2022/05/20 09:33:36;;;;;;;6.43;0.70;;;;;;;18.75;60.40;100789.22;5052893;28;20024;-84
2022/05/20 09:36:03;;;;;;;4.97;1.05;;;;;;;18.37;59.62;100793.72;5032267;28;20017;-84
2022/05/20 09:38:33;;;;;;;4.93;1.58;;;;;;;18.36;60.43;100792.03;5031938;28;20487;-84
2022/05/20 09:40:59;;;;;;;4.93;0.85;;;;;;;18.26;60.45;100785.09;5031695;28;20400;-84
2022/05/20 09:43:27;;;;;;;1.85;0.70;;;;;;;17.97;60.16;100788.66;5022436;28;20029;-84
2022/05/20 09:45:55;;;;;;;1.92;0.75;;;;;;;18.30;61.16;100778.50;5013029;28;20040;-84
2022/05/20 09:48:49;;;;;;;6.22;1.23;;;;;;;18.74;59.75;100782.22;5013052;28;20034;-84
2022/05/20 09:51:19;;;;;;;3.75;0.85;;;;;;;18.77;61.00;100781.09;5012392;28;20026;-84
2022/05/20 09:53:59;;;;;;;3.70;0.80;;;;;;;18.71;59.03;100776.38;5013002;28;20022;-84
2022/05/20 09:56:32;;;;;;;3.50;0.90;;;;;;;19.20;57.91;100777.75;5012855;28;20025;-84
2022/05/20 09:59:41;;;;;;;4.43;1.20;;;;;;;19.86;56.58;100778.34;5026481;28;20021;-84
2022/05/20 10:02:28;;;;;;;4.90;0.98;;;;;;;18.88;57.55;100785.38;5003146;28;20388;-84
2022/05/20 10:05:10;;;;;;;4.97;0.85;;;;;;;19.39;55.91;100770.59;5030982;28;20396;-83
2022/05/20 10:08:13;;;;;;;3.00;0.63;;;;;;;19.92;57.07;100779.56;5032577;28;20026;-84
2022/05/20 10:10:56;;;;;;;4.63;0.70;;;;;;;19.88;55.92;100771.03;5032395;28;20036;-83
2022/05/20 10:13:35;;;;;;;2.15;0.50;;;;;;;20.11;55.82;100760.69;5030482;28;20049;-84
2022/05/20 10:16:32;;;;;;;3.83;0.88;;;;;;;19.88;56.32;100768.38;5031456;28;20025;-83
2022/05/20 10:18:57;;;;;;;4.75;0.80;;;;;;;20.57;53.16;100763.91;5031514;28;20033;-84
2022/05/20 10:21:40;;;;;;;4.18;0.80;;;;;;;21.90;51.28;100752.41;5031975;28;20036;-84
2022/05/20 10:24:27;;;;;;;5.72;0.85;;;;;;;21.95;50.43;100755.44;5031961;28;20021;-83
2022/05/20 10:27:03;;;;;;;4.28;0.75;;;;;;;22.63;49.20;100753.22;5031527;28;20499;-84
2022/05/20 10:32:39;;;;;;;3.50;1.20;;;;;;;21.90;50.06;100749.75;5011884;28;20156;-84
2022/05/20 10:35:16;;;;;;;5.13;0.70;;;;;;;21.88;49.08;100749.09;5012202;28;20027;-84
2022/05/20 10:37:53;;;;;;;3.47;0.93;;;;;;;22.67;48.51;100746.50;5012132;28;20495;-84
2022/05/20 10:40:37;;;;;;;4.95;0.90;;;;;;;23.26;47.58;100749.53;5012177;28;20492;-84
2022/05/20 10:43:17;;;;;;;2.20;0.70;;;;;;;22.87;48.49;100753.13;5022978;28;20033;-84
2022/05/20 10:49:04;;;;;;;5.97;1.08;;;;;;;21.95;50.89;100747.41;5032063;28;20391;-84
2022/05/20 10:51:38;;;;;;;6.38;1.08;;;;;;;22.50;50.24;100743.09;5030630;28;20051;-84
2022/05/20 10:54:12;;;;;;;7.90;0.90;;;;;;;22.26;49.34;100744.03;5031923;28;20388;-84
2022/05/20 10:57:15;;;;;;;2.88;0.55;;;;;;;21.83;50.11;100746.09;5031646;28;20025;-84
2022/05/20 11:00:05;;;;;;;2.33;0.60;;;;;;;22.26;50.16;100747.53;5031724;28;20033;-84
2022/05/20 11:02:58;;;;;;;7.57;1.27;;;;;;;23.34;46.93;100735.22;5032065;28;20025;-84
2022/05/20 11:05:49;;;;;;;4.45;0.95;;;;;;;23.21;46.63;100724.31;5035858;28;20096;-84
2022/05/20 11:08:22;;;;;;;4.13;0.77;;;;;;;22.64;47.34;100723.63;5035730;28;20112;-84
2022/05/20 11:10:57;;;;;;;4.90;1.05;;;;;;;23.00;47.29;100723.06;5035828;28;20084;-84
2022/05/20 11:13:37;;;;;;;5.55;1.10;;;;;;;23.10;48.17;100722.84;5033978;28;20120;-84
2022/05/20 11:16:34;;;;;;;2.35;0.73;;;;;;;22.94;47.59;100723.78;5035586;28;20387;-84
2022/05/20 11:18:59;;;;;;;2.28;0.65;;;;;;;22.88;47.93;100716.44;5035558;28;20026;-84
2022/05/20 11:21:37;;;;;;;6.88;1.02;;;;;;;22.41;48.60;100722.72;5035108;28;20108;-84
2022/05/20 11:24:39;;;;;;;3.72;0.85;;;;;;;22.66;47.78;100718.09;5035518;28;20033;-84
2022/05/20 11:27:34;;;;;;;4.00;1.10;;;;;;;22.03;49.10;100726.00;5034059;28;20053;-84
2022/05/20 11:30:16;;;;;;;7.35;0.90;;;;;;;21.68;49.84;100716.56;5035295;28;20518;-83
2022/05/20 11:33:01;;;;;;;;;;;;;;;21.81;50.10;100710.69;5035495;28;20029;-84
2022/05/20 11:35:38;;;;;;;4.97;1.23;;;;;;;22.99;47.98;100720.59;5035357;28;19956;-84
2022/05/20 11:38:42;;;;;;;4.18;0.70;;;;;;;23.33;48.38;100723.69;5035149;28;20063;-84
2022/05/20 11:41:31;;;;;;;5.40;1.52;;;;;;;23.44;47.97;100713.53;4993376;28;20483;-84
2022/05/20 11:44:00;;;;;;;2.58;0.55;;;;;;;23.40;48.36;100706.88;5026204;28;20120;-84
2022/05/20 11:47:04;;;;;;;3.78;0.73;;;;;;;24.99;44.86;100718.13;5032628;28;20033;-84
2022/05/20 11:49:49;;;;;;;4.50;0.70;;;;;;;24.52;47.11;100713.06;5022628;28;20533;-84
2022/05/20 11:52:36;;;;;;;4.32;0.75;;;;;;;25.29;46.03;100713.47;5034818;28;20394;-84
2022/05/20 11:55:10;;;;;;;3.15;0.70;;;;;;;24.38;45.17;100713.91;5034794;28;20356;-84
2022/05/20 11:57:43;;;;;;;5.22;1.33;;;;;;;25.15;43.99;100728.63;5034861;28;20391;-84
2022/05/20 12:00:11;;;;;;;2.15;0.93;;;;;;;23.87;45.73;100719.19;5034657;28;20087;-84
2022/05/20 12:02:43;;;;;;;3.25;0.70;;;;;;;24.73;45.77;100722.19;5032592;28;20037;-84
2022/05/20 12:05:12;;;;;;;3.30;0.90;;;;;;;25.71;42.45;100720.66;5033387;28;20029;-84
2022/05/20 12:07:38;;;;;;;2.63;0.77;;;;;;;25.82;41.98;100708.50;5034731;28;20022;-84
2022/05/20 12:10:32;;;;;;;4.70;0.63;;;;;;;25.96;42.40;100716.69;5034558;28;20025;-84
2022/05/20 12:13:26;;;;;;;4.60;0.70;;;;;;;25.66;42.44;100717.69;5034590;28;20034;-84
2022/05/20 12:16:11;;;;;;;5.70;0.80;;;;;;;25.05;42.52;100712.81;5033168;28;20029;-84